createdAt,value
2019-04-05T00:00:04.627Z,5.10
2019-04-05T00:01:10.039Z,4.45
2019-04-05T00:02:12.880Z,4.85
2019-04-05T00:03:15.521Z,4.17
2019-04-05T00:04:18.278Z,4.97
2019-04-05T00:05:21.446Z,4.72
2019-04-05T00:06:25.136Z,4.28
2019-04-05T00:07:30.895Z,5.42
2019-04-05T00:08:34.094Z,4.97
2019-04-05T00:09:37.214Z,5.00
2019-04-05T00:10:40.590Z,5.10
2019-04-05T00:11:43.935Z,4.75
2019-04-05T00:12:47.258Z,4.70
2019-04-05T00:13:50.503Z,5.15
2019-04-05T00:14:53.850Z,5.22
2019-04-05T00:15:57.347Z,5.60
2019-04-05T00:17:01.138Z,5.53
2019-04-05T00:18:04.118Z,5.28
2019-04-05T00:19:07.565Z,4.80
2019-04-05T00:20:11.415Z,6.35
2019-04-05T00:21:15.073Z,5.60
2019-04-05T00:22:19.448Z,6.22
2019-04-05T00:23:22.677Z,5.35
2019-04-05T00:24:25.893Z,5.22
2019-04-05T00:25:28.875Z,5.15
2019-04-05T00:26:31.982Z,6.67
2019-04-05T00:27:35.121Z,5.10
2019-04-05T00:28:38.509Z,6.05
2019-04-05T00:29:42.728Z,6.40
2019-04-05T00:30:46.423Z,6.35
2019-04-05T00:31:49.523Z,5.80
2019-04-05T00:32:52.972Z,6.30
2019-04-05T00:33:56.395Z,6.83
2019-04-05T00:34:59.540Z,5.72
2019-04-05T00:36:05.399Z,5.72
2019-04-05T00:37:08.281Z,6.05
2019-04-05T00:38:11.928Z,6.17
2019-04-05T00:39:14.600Z,6.50
2019-04-05T00:40:17.266Z,5.75
2019-04-05T00:41:20.139Z,5.85
2019-04-05T00:42:22.672Z,6.25
2019-04-05T00:43:25.540Z,6.28
2019-04-05T00:44:28.122Z,6.95
2019-04-05T00:45:30.736Z,5.72
2019-04-05T00:46:33.270Z,6.17
2019-04-05T00:47:35.933Z,7.03
2019-04-05T00:48:38.442Z,6.12
2019-04-05T00:49:41.171Z,6.87
2019-04-05T00:50:43.908Z,7.58
2019-04-05T00:51:46.650Z,6.22
2019-04-05T00:52:49.230Z,6.25
2019-04-05T00:53:51.964Z,6.85
2019-04-05T00:54:54.636Z,6.58
2019-04-05T00:55:57.306Z,6.70
2019-04-05T00:56:59.874Z,7.30
2019-04-05T00:58:02.487Z,6.17
2019-04-05T00:59:05.242Z,6.22
2019-04-05T01:00:08.522Z,8.00
2019-04-05T01:01:11.401Z,6.45
2019-04-05T01:02:15.563Z,7.67
2019-04-05T01:03:18.103Z,7.08
2019-04-05T01:04:21.993Z,6.62
2019-04-05T01:05:24.838Z,7.33
2019-04-05T01:06:27.832Z,7.20
2019-04-05T01:07:30.525Z,6.83
2019-04-05T01:08:33.179Z,7.17
2019-04-05T01:09:36.026Z,6.90
2019-04-05T01:10:38.919Z,7.25
2019-04-05T01:11:42.675Z,6.97
2019-04-05T01:12:45.933Z,7.25
2019-04-05T01:13:49.593Z,6.92
2019-04-05T01:14:53.667Z,6.47
2019-04-05T01:15:56.459Z,6.87
2019-04-05T01:16:59.277Z,6.58
2019-04-05T01:18:02.481Z,7.08
2019-04-05T01:19:05.552Z,7.03
2019-04-05T01:20:10.493Z,6.97
2019-04-05T01:21:17.858Z,6.90
2019-04-05T01:22:24.847Z,6.62
2019-04-05T01:23:28.150Z,6.70
2019-04-05T01:24:31.469Z,6.58
2019-04-05T01:25:35.210Z,6.33
2019-04-05T01:26:40.256Z,7.70
2019-04-05T01:27:43.084Z,7.28
2019-04-05T01:28:46.118Z,7.33
2019-04-05T01:29:48.852Z,6.97
2019-04-05T01:30:51.519Z,6.95
2019-04-05T01:31:54.073Z,7.40
2019-04-05T01:32:56.801Z,6.87
2019-04-05T01:33:59.495Z,7.60
2019-04-05T01:35:02.204Z,6.87
2019-04-05T01:36:04.946Z,7.20
2019-04-05T01:37:07.572Z,7.20
2019-04-05T01:38:10.236Z,6.50
2019-04-05T01:39:12.810Z,7.40
2019-04-05T01:40:15.515Z,7.53
2019-04-05T01:41:18.172Z,6.78
2019-04-05T01:42:21.920Z,5.75
2019-04-05T01:43:25.087Z,5.58
2019-04-05T01:44:28.329Z,6.22
2019-04-05T01:45:30.978Z,5.97
2019-04-05T01:46:34.221Z,5.75
2019-04-05T01:47:37.162Z,6.50
2019-04-05T01:48:39.909Z,5.37
2019-04-05T01:49:42.779Z,5.75
2019-04-05T01:50:45.294Z,5.62
2019-04-05T01:51:48.084Z,4.83
2019-04-05T01:52:50.806Z,5.08
2019-04-05T01:53:53.487Z,5.85
2019-04-05T01:54:56.442Z,5.85
2019-04-05T01:55:59.095Z,5.92
2019-04-05T01:57:01.933Z,5.87
2019-04-05T01:58:04.456Z,6.25
2019-04-05T01:59:07.405Z,5.33
2019-04-05T02:00:11.122Z,4.92
2019-04-05T02:01:14.052Z,4.95
2019-04-05T02:02:16.596Z,5.28
2019-04-05T02:03:19.283Z,5.15
2019-04-05T02:04:21.865Z,5.75
2019-04-05T02:05:24.783Z,5.37
2019-04-05T02:06:27.466Z,5.42
2019-04-05T02:07:32.596Z,4.70
2019-04-05T02:08:37.190Z,5.40
2019-04-05T02:09:39.941Z,5.70
2019-04-05T02:10:42.937Z,4.87
2019-04-05T02:11:46.776Z,4.60
2019-04-05T02:12:49.702Z,5.40
2019-04-05T02:13:53.843Z,5.85
2019-04-05T02:14:56.721Z,5.22
2019-04-05T02:16:06.110Z,6.22
2019-04-05T02:17:03.969Z,5.40
2019-04-05T02:18:06.722Z,5.58
2019-04-05T02:19:09.421Z,5.25
2019-04-05T02:20:12.557Z,4.95
2019-04-05T02:21:15.167Z,5.95
2019-04-05T02:22:17.883Z,4.67
2019-04-05T02:23:20.405Z,5.03
2019-04-05T02:24:22.967Z,4.90
2019-04-05T02:25:26.197Z,5.03
2019-04-05T02:26:28.950Z,4.87
2019-04-05T02:27:31.533Z,5.40
2019-04-05T02:28:34.174Z,5.05
2019-04-05T02:29:36.723Z,4.95
2019-04-05T02:30:39.276Z,4.87
2019-04-05T02:31:41.989Z,4.78
2019-04-05T02:32:44.612Z,5.72
2019-04-05T02:33:47.384Z,4.40
2019-04-05T02:34:50.355Z,4.75
2019-04-05T02:35:53.129Z,5.42
2019-04-05T02:36:55.909Z,4.70
2019-04-05T02:37:58.603Z,4.55
2019-04-05T02:39:01.111Z,4.55
2019-04-05T02:40:05.703Z,5.12
2019-04-05T02:41:08.825Z,5.45
2019-04-05T02:42:12.511Z,4.80
2019-04-05T02:43:17.662Z,4.40
2019-04-05T02:44:21.521Z,4.80
2019-04-05T02:45:26.456Z,5.12
2019-04-05T02:46:30.878Z,5.22
2019-04-05T02:47:33.855Z,5.62
2019-04-05T02:48:39.980Z,5.47
2019-04-05T02:49:44.024Z,5.50
2019-04-05T02:50:50.798Z,4.58
2019-04-05T02:51:55.490Z,4.72
2019-04-05T02:53:01.992Z,5.25
2019-04-05T02:54:04.977Z,5.00
2019-04-05T02:55:08.228Z,4.80
2019-04-05T02:56:12.397Z,5.33
2019-04-05T02:57:17.666Z,5.47
2019-04-05T02:58:20.493Z,4.28
2019-04-05T02:59:24.353Z,4.70
2019-04-05T03:00:28.334Z,4.85
2019-04-05T03:01:32.740Z,4.72
2019-04-05T03:02:36.061Z,5.47
2019-04-05T03:03:39.635Z,4.75
2019-04-05T03:04:42.579Z,5.90
2019-04-05T03:05:46.301Z,5.25
2019-04-05T03:06:50.642Z,4.33
2019-04-05T03:07:53.301Z,5.65
2019-04-05T03:08:56.157Z,5.25
2019-04-05T03:09:59.419Z,4.50
2019-04-05T03:11:07.579Z,6.05
2019-04-05T03:12:10.379Z,4.90
2019-04-05T03:13:13.231Z,5.00
2019-04-05T03:14:16.772Z,5.08
2019-04-05T03:15:19.354Z,5.08
2019-04-05T03:16:39.177Z,4.33
2019-04-05T03:17:33.624Z,4.53
2019-04-05T03:18:40.534Z,5.20
2019-04-05T03:19:45.170Z,4.60
2019-04-05T03:20:48.383Z,5.17
2019-04-05T03:21:54.254Z,4.35
2019-04-05T03:22:57.388Z,5.35
2019-04-05T03:24:03.359Z,5.50
2019-04-05T03:25:06.239Z,5.03
2019-04-05T03:26:12.774Z,5.35
2019-04-05T03:27:21.555Z,5.47
2019-04-05T03:28:25.653Z,5.75
2019-04-05T03:29:29.375Z,6.08
2019-04-05T03:30:32.135Z,5.60
2019-04-05T03:31:36.660Z,5.50
2019-04-05T03:32:39.860Z,6.37
2019-04-05T03:33:42.696Z,6.20
2019-04-05T03:34:45.477Z,5.47
2019-04-05T03:35:49.317Z,5.25
2019-04-05T03:36:52.221Z,4.85
2019-04-05T03:37:55.272Z,6.10
2019-04-05T03:38:58.253Z,5.17
2019-04-05T03:40:00.996Z,5.40
2019-04-05T03:41:04.342Z,6.28
2019-04-05T03:42:07.617Z,5.47
2019-04-05T03:43:11.302Z,6.22
2019-04-05T03:44:13.972Z,6.15
2019-04-05T03:45:16.739Z,7.53
2019-04-05T03:46:19.468Z,6.87
2019-04-05T03:47:22.371Z,6.35
2019-04-05T03:48:25.207Z,5.10
2019-04-05T03:49:28.957Z,5.83
2019-04-05T03:50:31.915Z,5.55
2019-04-05T03:51:34.890Z,5.90
2019-04-05T03:52:39.313Z,6.35
2019-04-05T03:53:42.032Z,6.20
2019-04-05T03:54:44.754Z,5.80
2019-04-05T03:55:48.312Z,7.05
2019-04-05T03:56:50.839Z,5.95
2019-04-05T03:57:53.587Z,6.62
2019-04-05T03:58:56.231Z,6.33
2019-04-05T04:00:00.602Z,6.20
2019-04-05T04:01:03.988Z,6.50
2019-04-05T04:02:06.748Z,6.22
2019-04-05T04:03:09.779Z,5.25
2019-04-05T04:04:12.515Z,6.67
2019-04-05T04:05:15.150Z,6.45
2019-04-05T04:06:18.211Z,5.67
2019-04-05T04:07:20.980Z,6.60
2019-04-05T04:08:23.607Z,7.10
2019-04-05T04:09:26.629Z,6.67
2019-04-05T04:10:29.344Z,7.03
2019-04-05T04:11:31.951Z,6.70
2019-04-05T04:12:35.063Z,5.80
2019-04-05T04:13:38.340Z,6.83
2019-04-05T04:14:41.131Z,6.25
2019-04-05T04:15:44.120Z,7.12
2019-04-05T04:16:48.840Z,6.75
2019-04-05T04:17:51.918Z,7.00
2019-04-05T04:18:54.741Z,6.42
2019-04-05T04:19:57.817Z,7.12
2019-04-05T04:21:06.729Z,7.80
2019-04-05T04:22:38.492Z,6.72
2019-04-05T04:23:41.085Z,6.92
2019-04-05T04:24:43.829Z,6.62
2019-04-05T04:25:48.505Z,6.17
2019-04-05T04:26:51.251Z,5.90
2019-04-05T04:27:53.838Z,6.70
2019-04-05T04:28:57.135Z,6.20
2019-04-05T04:30:00.693Z,6.87
2019-04-05T04:31:03.601Z,5.83
2019-04-05T04:32:06.659Z,6.40
2019-04-05T04:33:10.827Z,6.17
2019-04-05T04:34:13.866Z,6.53
2019-04-05T04:35:16.711Z,6.40
2019-04-05T04:36:20.351Z,6.22
2019-04-05T04:37:23.289Z,7.10
2019-04-05T04:38:26.623Z,6.03
2019-04-05T04:39:29.604Z,5.72
2019-04-05T04:40:33.066Z,6.58
2019-04-05T04:41:35.657Z,5.58
2019-04-05T04:42:41.001Z,6.70
2019-04-05T04:43:44.528Z,6.75
2019-04-05T04:44:47.510Z,6.55
2019-04-05T04:45:50.442Z,5.75
2019-04-05T04:46:53.917Z,7.22
2019-04-05T04:47:57.565Z,7.15
2019-04-05T04:49:00.999Z,7.30
2019-04-05T04:50:04.767Z,6.42
2019-04-05T04:51:07.634Z,7.08
2019-04-05T04:52:10.877Z,8.15
2019-04-05T04:53:14.571Z,7.10
2019-04-05T04:54:17.627Z,7.05
2019-04-05T04:55:20.760Z,6.72
2019-04-05T04:56:23.415Z,6.95
2019-04-05T04:57:26.294Z,6.37
2019-04-05T04:58:28.886Z,6.25
2019-04-05T04:59:31.538Z,7.53
2019-04-05T05:00:34.763Z,6.92
2019-04-05T05:01:37.385Z,6.78
2019-04-05T05:02:40.522Z,6.87
2019-04-05T05:03:45.353Z,5.83
2019-04-05T05:04:48.457Z,5.97
2019-04-05T05:05:51.505Z,7.22
2019-04-05T05:06:54.278Z,6.35
2019-04-05T05:07:57.341Z,6.33
2019-04-05T05:09:00.418Z,6.30
2019-04-05T05:10:03.680Z,6.28
2019-04-05T05:11:14.394Z,6.87
2019-04-05T05:12:11.495Z,6.40
2019-04-05T05:13:15.331Z,7.30
2019-04-05T05:14:18.267Z,7.85
2019-04-05T05:15:21.121Z,7.22
2019-04-05T05:16:23.866Z,6.85
2019-04-05T05:17:37.801Z,6.85
2019-04-05T05:18:31.777Z,5.33
2019-04-05T05:19:35.735Z,6.53
2019-04-05T05:20:38.369Z,6.62
2019-04-05T05:21:41.192Z,6.95
2019-04-05T05:22:43.870Z,6.62
2019-04-05T05:23:47.185Z,7.40
2019-04-05T05:24:50.216Z,6.55
2019-04-05T05:25:53.200Z,5.87
2019-04-05T05:26:56.244Z,6.40
2019-04-05T05:27:59.278Z,6.03
2019-04-05T05:29:02.638Z,6.40
2019-04-05T05:30:06.316Z,8.18
2019-04-05T05:31:09.395Z,7.50
2019-04-05T05:32:13.440Z,7.12
2019-04-05T05:33:16.466Z,6.90
2019-04-05T05:34:19.443Z,7.87
2019-04-05T05:35:22.388Z,6.75
2019-04-05T05:36:25.019Z,6.58
2019-04-05T05:37:28.308Z,7.60
2019-04-05T05:38:31.161Z,7.65
2019-04-05T05:39:33.764Z,7.12
2019-04-05T05:40:36.897Z,6.35
2019-04-05T05:41:39.434Z,7.30
2019-04-05T05:42:41.953Z,6.87
2019-04-05T05:43:44.831Z,6.05
2019-04-05T05:44:47.751Z,6.90
2019-04-05T05:45:50.407Z,7.28
2019-04-05T05:46:53.337Z,6.62
2019-04-05T05:47:56.464Z,7.25
2019-04-05T05:48:59.410Z,7.22
2019-04-05T05:50:01.961Z,6.87
2019-04-05T05:51:04.581Z,6.67
2019-04-05T05:52:07.912Z,6.60
2019-04-05T05:53:10.973Z,6.90
2019-04-05T05:54:13.593Z,6.62
2019-04-05T05:55:16.359Z,6.20
2019-04-05T05:56:18.904Z,7.28
2019-04-05T05:57:21.436Z,8.38
2019-04-05T05:58:25.855Z,8.13
2019-04-05T05:59:30.235Z,7.03
2019-04-05T06:00:33.852Z,6.12
2019-04-05T06:01:36.583Z,8.08
2019-04-05T06:02:39.487Z,6.47
2019-04-05T06:03:42.387Z,7.62
2019-04-05T06:04:45.304Z,7.05
2019-04-05T06:05:48.000Z,7.30
2019-04-05T06:06:50.617Z,7.55
2019-04-05T06:07:54.562Z,7.45
2019-04-05T06:08:57.130Z,6.47
2019-04-05T06:09:59.881Z,6.37
2019-04-05T06:11:02.628Z,5.35
2019-04-05T06:12:05.467Z,5.45
2019-04-05T06:13:08.199Z,6.42
2019-04-05T06:14:10.760Z,6.75
2019-04-05T06:15:13.611Z,6.12
2019-04-05T06:16:16.262Z,6.95
2019-04-05T06:17:20.388Z,7.67
2019-04-05T06:18:22.897Z,7.15
2019-04-05T06:19:25.427Z,7.28
2019-04-05T06:20:27.990Z,6.60
2019-04-05T06:21:30.682Z,7.17
2019-04-05T06:22:33.304Z,6.90
2019-04-05T06:23:35.992Z,5.95
2019-04-05T06:24:38.630Z,7.47
2019-04-05T06:25:42.304Z,7.20
2019-04-05T06:26:44.875Z,7.00
2019-04-05T06:27:48.367Z,6.83
2019-04-05T06:28:52.252Z,7.08
2019-04-05T06:29:55.519Z,7.03
2019-04-05T06:30:58.063Z,7.58
2019-04-05T06:32:00.806Z,6.62
2019-04-05T06:33:03.367Z,8.00
2019-04-05T06:34:05.885Z,6.92
2019-04-05T06:35:09.118Z,7.25
2019-04-05T06:36:11.642Z,6.97
2019-04-05T06:37:14.336Z,6.58
2019-04-05T06:38:17.012Z,7.37
2019-04-05T06:39:20.785Z,6.83
2019-04-05T06:40:23.700Z,6.95
2019-04-05T06:41:27.347Z,6.97
2019-04-05T06:42:29.950Z,6.25
2019-04-05T06:43:32.686Z,8.30
2019-04-05T06:44:35.308Z,7.25
2019-04-05T06:45:37.832Z,6.70
2019-04-05T06:46:40.481Z,8.10
2019-04-05T06:47:43.262Z,7.20
2019-04-05T06:48:47.059Z,8.25
2019-04-05T06:49:49.689Z,6.92
2019-04-05T06:50:52.264Z,7.50
2019-04-05T06:51:54.796Z,7.37
2019-04-05T06:52:57.754Z,6.85
2019-04-05T06:54:03.259Z,7.58
2019-04-05T06:55:05.470Z,8.18
2019-04-05T06:56:08.206Z,7.90
2019-04-05T06:57:10.805Z,7.90
2019-04-05T06:58:19.838Z,6.25
2019-04-05T06:59:19.385Z,7.33
2019-04-05T07:00:29.192Z,6.42
2019-04-05T07:01:31.948Z,6.22
2019-04-05T07:02:34.632Z,7.20
2019-04-05T07:03:37.193Z,7.40
2019-04-05T07:04:39.839Z,7.67
2019-04-05T07:05:42.392Z,7.22
2019-04-05T07:06:45.120Z,6.83
2019-04-05T07:07:47.826Z,7.25
2019-04-05T07:08:54.102Z,6.40
2019-04-05T07:09:54.985Z,7.55
2019-04-05T07:10:57.624Z,6.97
2019-04-05T07:12:00.274Z,7.12
2019-04-05T07:13:04.216Z,7.22
2019-04-05T07:14:06.847Z,6.70
2019-04-05T07:15:09.698Z,7.28
2019-04-05T07:16:12.363Z,6.58
2019-04-05T07:17:15.129Z,7.42
2019-04-05T07:18:17.637Z,7.50
2019-04-05T07:19:20.153Z,6.78
2019-04-05T07:20:24.514Z,7.60
2019-04-05T07:21:27.150Z,6.42
2019-04-05T07:22:37.248Z,6.22
2019-04-05T07:23:34.663Z,6.97
2019-04-05T07:24:37.486Z,7.50
2019-04-05T07:25:40.394Z,6.78
2019-04-05T07:26:43.333Z,6.67
2019-04-05T07:27:46.082Z,7.35
2019-04-05T07:28:48.635Z,6.22
2019-04-05T07:29:51.182Z,6.70
2019-04-05T07:30:54.832Z,6.42
2019-04-05T07:31:57.386Z,7.37
2019-04-05T07:33:01.266Z,5.50
2019-04-05T07:34:04.081Z,6.90
2019-04-05T07:35:06.624Z,6.55
2019-04-05T07:36:09.190Z,6.83
2019-04-05T07:37:11.725Z,6.92
2019-04-05T07:38:14.257Z,6.72
2019-04-05T07:39:16.888Z,6.37
2019-04-05T07:40:19.798Z,6.40
2019-04-05T07:41:22.627Z,6.75
2019-04-05T07:42:25.348Z,6.03
2019-04-05T07:43:27.907Z,6.40
2019-04-05T07:44:31.547Z,6.45
2019-04-05T07:45:34.087Z,6.08
2019-04-05T07:46:36.748Z,6.55
2019-04-05T07:47:39.302Z,6.33
2019-04-05T07:48:45.057Z,6.67
2019-04-05T07:49:47.581Z,6.37
2019-04-05T07:50:50.374Z,6.83
2019-04-05T07:51:54.827Z,6.65
2019-04-05T07:52:58.483Z,6.17
2019-04-05T07:54:01.107Z,5.35
2019-04-05T07:55:05.278Z,5.60
2019-04-05T07:56:07.939Z,4.83
2019-04-05T07:57:23.202Z,5.47
2019-04-05T07:58:25.848Z,4.95
2019-04-05T07:59:28.397Z,5.30
2019-04-05T08:00:43.513Z,5.25
2019-04-05T08:01:46.034Z,5.70
2019-04-05T08:02:48.739Z,5.72
2019-04-05T08:03:51.381Z,5.08
2019-04-05T08:04:54.772Z,5.58
2019-04-05T08:05:57.944Z,5.60
2019-04-05T08:07:03.065Z,5.33
2019-04-05T08:08:08.940Z,5.30
2019-04-05T08:09:12.984Z,5.45
2019-04-05T08:10:15.773Z,5.53
2019-04-05T08:11:18.615Z,5.65
2019-04-05T08:12:21.178Z,5.22
2019-04-05T08:13:26.889Z,5.58
2019-04-05T08:14:31.065Z,5.03
2019-04-05T08:15:34.229Z,5.20
2019-04-05T08:16:36.981Z,5.60
2019-04-05T08:17:39.693Z,5.83
2019-04-05T08:18:42.204Z,5.10
2019-04-05T08:19:45.037Z,5.60
2019-04-05T08:20:47.589Z,5.12
2019-04-05T08:21:50.320Z,6.12
2019-04-05T08:22:52.914Z,4.75
2019-04-05T08:23:55.655Z,4.75
2019-04-05T08:24:58.209Z,4.60
2019-04-05T08:26:00.938Z,4.33
2019-04-05T08:27:03.657Z,5.42
2019-04-05T08:28:07.317Z,5.47
2019-04-05T08:29:09.865Z,6.20
2019-04-05T08:30:12.449Z,4.87
2019-04-05T08:31:15.233Z,5.00
2019-04-05T08:32:18.104Z,6.00
2019-04-05T08:33:20.658Z,5.08
2019-04-05T08:34:23.173Z,5.42
2019-04-05T08:35:25.958Z,4.65
2019-04-05T08:36:28.795Z,5.42
2019-04-05T08:37:31.312Z,5.83
2019-04-05T08:38:33.970Z,4.80
2019-04-05T08:39:36.604Z,5.45
2019-04-05T08:40:39.282Z,4.90
2019-04-05T08:41:41.783Z,5.70
2019-04-05T08:42:44.458Z,5.00
2019-04-05T08:43:47.465Z,6.10
2019-04-05T08:44:50.208Z,5.50
2019-04-05T08:45:52.773Z,5.33
2019-04-05T08:46:55.332Z,5.10
2019-04-05T08:47:58.041Z,5.90
2019-04-05T08:49:10.605Z,5.15
2019-04-05T08:50:05.729Z,4.83
2019-04-05T08:51:08.380Z,4.62
2019-04-05T08:52:10.957Z,4.75
2019-04-05T08:53:13.597Z,5.15
2019-04-05T08:54:16.197Z,5.42
2019-04-05T08:55:18.991Z,5.67
2019-04-05T08:56:21.660Z,4.67
2019-04-05T08:57:24.260Z,5.12
2019-04-05T08:58:33.532Z,5.05
2019-04-05T08:59:32.763Z,4.67
2019-04-05T09:00:35.454Z,4.33
2019-04-05T09:01:39.886Z,5.05
2019-04-05T09:02:42.524Z,5.15
2019-04-05T09:03:45.489Z,4.28
2019-04-05T09:04:48.134Z,5.33
2019-04-05T09:05:51.197Z,4.30
2019-04-05T09:06:53.790Z,4.08
2019-04-05T09:07:56.349Z,4.87
2019-04-05T09:08:58.891Z,5.12
2019-04-05T09:10:01.550Z,4.50
2019-04-05T09:11:04.495Z,4.75
2019-04-05T09:12:07.287Z,4.17
2019-04-05T09:13:10.097Z,4.60
2019-04-05T09:14:12.834Z,4.28
2019-04-05T09:15:15.708Z,4.87
2019-04-05T09:16:18.329Z,4.47
2019-04-05T09:17:20.962Z,4.22
2019-04-05T09:18:24.798Z,4.78
2019-04-05T09:19:27.394Z,4.17
2019-04-05T09:20:29.967Z,4.80
2019-04-05T09:21:32.742Z,5.33
2019-04-05T09:22:37.284Z,5.05
2019-04-05T09:23:39.851Z,4.35
2019-04-05T09:24:42.504Z,5.28
2019-04-05T09:25:45.155Z,4.33
2019-04-05T09:26:47.684Z,5.05
2019-04-05T09:27:50.248Z,4.60
2019-04-05T09:28:52.924Z,4.30
2019-04-05T09:29:56.562Z,4.50
2019-04-05T09:30:59.185Z,4.90
2019-04-05T09:32:01.760Z,4.03
2019-04-05T09:33:04.396Z,4.65
2019-04-05T09:34:07.641Z,5.35
2019-04-05T09:35:10.475Z,4.67
2019-04-05T09:36:13.159Z,5.75
2019-04-05T09:37:16.021Z,5.00
2019-04-05T09:38:18.781Z,5.15
2019-04-05T09:39:21.448Z,5.20
2019-04-05T09:40:24.430Z,5.10
2019-04-05T09:41:27.165Z,4.12
2019-04-05T09:42:29.926Z,4.33
2019-04-05T09:43:32.561Z,4.55
2019-04-05T09:44:35.235Z,5.22
2019-04-05T09:45:38.190Z,4.97
2019-04-05T09:46:48.073Z,5.03
2019-04-05T09:47:45.748Z,5.05
2019-04-05T09:48:48.263Z,4.87
2019-04-05T09:49:50.979Z,4.80
2019-04-05T09:50:53.738Z,4.60
2019-04-05T09:51:56.543Z,5.47
2019-04-05T09:52:59.186Z,4.90
2019-04-05T09:54:02.062Z,5.40
2019-04-05T09:55:04.907Z,5.00
2019-04-05T09:56:07.734Z,4.25
2019-04-05T09:57:10.474Z,4.72
2019-04-05T09:58:13.429Z,5.05
2019-04-05T09:59:15.968Z,5.75
2019-04-05T10:00:23.391Z,5.65
2019-04-05T10:01:26.326Z,4.28
2019-04-05T10:02:31.677Z,5.08
2019-04-05T10:03:33.326Z,4.95
2019-04-05T10:04:35.891Z,4.75
2019-04-05T10:05:38.459Z,5.10
2019-04-05T10:06:41.024Z,5.05
2019-04-05T10:07:54.273Z,5.30
2019-04-05T10:08:48.641Z,4.92
2019-04-05T10:09:51.350Z,4.65
2019-04-05T10:10:54.448Z,4.92
2019-04-05T10:11:57.025Z,3.90
2019-04-05T10:12:59.887Z,5.25
2019-04-05T10:14:02.700Z,4.70
2019-04-05T10:15:06.043Z,3.77
2019-04-05T10:16:08.613Z,5.53
2019-04-05T10:17:12.978Z,6.05
2019-04-05T10:18:15.532Z,5.90
2019-04-05T10:19:18.235Z,4.95
2019-04-05T10:20:20.916Z,5.00
2019-04-05T10:21:23.628Z,5.05
2019-04-05T10:22:26.260Z,5.20
2019-04-05T10:23:29.057Z,4.42
2019-04-05T10:24:33.102Z,5.50
2019-04-05T10:25:36.305Z,5.50
2019-04-05T10:26:39.244Z,4.97
2019-04-05T10:27:41.829Z,4.00
2019-04-05T10:28:44.554Z,5.80
2019-04-05T10:29:49.497Z,4.67
2019-04-05T10:30:52.224Z,4.97
2019-04-05T10:31:55.147Z,5.22
2019-04-05T10:32:57.781Z,5.22
2019-04-05T10:34:00.285Z,4.25
2019-04-05T10:35:03.042Z,4.40
2019-04-05T10:36:05.674Z,4.90
2019-04-05T10:37:08.460Z,4.40
2019-04-05T10:38:11.366Z,5.15
2019-04-05T10:39:14.142Z,4.95
2019-04-05T10:40:18.751Z,5.35
2019-04-05T10:41:23.018Z,5.47
2019-04-05T10:42:32.981Z,5.28
2019-04-05T10:43:35.555Z,4.97
2019-04-05T10:44:38.155Z,5.00
2019-04-05T10:45:40.986Z,5.47
2019-04-05T10:46:43.488Z,5.05
2019-04-05T10:47:45.980Z,4.50
2019-04-05T10:48:48.688Z,4.55
2019-04-05T10:50:02.365Z,4.40
2019-04-05T10:50:58.071Z,5.10
2019-04-05T10:52:00.872Z,5.08
2019-04-05T10:53:03.767Z,5.67
2019-04-05T10:54:09.295Z,5.17
2019-04-05T10:55:11.687Z,4.80
2019-04-05T10:56:14.245Z,4.97
2019-04-05T10:57:17.140Z,4.12
2019-04-05T10:58:21.495Z,5.42
2019-04-05T10:59:24.029Z,4.67
2019-04-05T11:00:27.791Z,5.20
2019-04-05T11:01:30.450Z,4.28
2019-04-05T11:02:33.482Z,5.80
2019-04-05T11:03:37.791Z,5.12
2019-04-05T11:04:40.407Z,5.42
2019-04-05T11:05:42.990Z,4.53
2019-04-05T11:06:45.701Z,5.30
2019-04-05T11:07:48.251Z,5.12
2019-04-05T11:08:51.017Z,5.37
2019-04-05T11:09:53.678Z,4.75
2019-04-05T11:10:57.412Z,5.37
2019-04-05T11:12:00.196Z,4.95
2019-04-05T11:13:02.834Z,6.85
2019-04-05T11:14:13.667Z,7.35
2019-04-05T11:15:14.982Z,6.00
2019-04-05T11:16:16.834Z,4.97
2019-04-05T11:17:19.481Z,5.28
2019-04-05T11:18:22.112Z,6.03
2019-04-05T11:19:25.154Z,5.45
2019-04-05T11:20:27.684Z,4.85
2019-04-05T11:21:31.390Z,5.15
2019-04-05T11:22:34.038Z,5.30
2019-04-05T11:23:36.697Z,4.95
2019-04-05T11:24:39.411Z,5.42
2019-04-05T11:25:41.918Z,6.35
2019-04-05T11:26:44.550Z,5.28
2019-04-05T11:27:47.705Z,4.72
2019-04-05T11:28:50.441Z,5.55
2019-04-05T11:29:53.032Z,4.92
2019-04-05T11:30:55.852Z,5.67
2019-04-05T11:31:58.422Z,5.45
2019-04-05T11:33:03.530Z,5.55
2019-04-05T11:34:07.530Z,4.95
2019-04-05T11:35:10.615Z,5.33
2019-04-05T11:36:16.435Z,5.70
2019-04-05T11:37:20.813Z,5.87
2019-04-05T11:38:24.762Z,5.65
2019-04-05T11:39:28.212Z,6.45
2019-04-05T11:40:31.843Z,5.33
2019-04-05T11:41:35.929Z,5.28
2019-04-05T11:42:42.029Z,5.37
2019-04-05T11:43:47.690Z,5.50
2019-04-05T11:44:53.515Z,5.72
2019-04-05T11:45:56.753Z,5.67
2019-04-05T11:47:00.203Z,4.70
2019-04-05T11:48:04.673Z,4.97
2019-04-05T11:49:07.503Z,5.35
2019-04-05T11:50:12.948Z,5.90
2019-04-05T11:51:17.040Z,5.05
2019-04-05T11:52:19.676Z,5.72
2019-04-05T11:53:22.265Z,5.47
2019-04-05T11:54:25.078Z,5.53
2019-04-05T11:55:27.727Z,5.45
2019-04-05T11:56:30.532Z,5.08
2019-04-05T11:57:33.281Z,5.83
2019-04-05T11:58:36.263Z,5.60
2019-04-05T11:59:38.978Z,5.90
2019-04-05T12:01:01.131Z,5.83
2019-04-05T12:02:10.976Z,5.08
2019-04-05T12:03:13.951Z,4.92
2019-04-05T12:04:16.756Z,4.87
2019-04-05T12:05:22.870Z,6.15
2019-04-05T12:06:24.948Z,5.53
2019-04-05T12:07:27.595Z,5.97
2019-04-05T12:08:30.581Z,5.97
2019-04-05T12:09:33.103Z,5.40
2019-04-05T12:10:35.887Z,4.97
2019-04-05T12:11:38.949Z,5.70
2019-04-05T12:12:41.741Z,5.15
2019-04-05T12:13:47.492Z,5.72
2019-04-05T12:14:49.538Z,4.90
2019-04-05T12:15:52.470Z,5.30
2019-04-05T12:16:56.086Z,4.55
2019-04-05T12:17:58.825Z,4.55
2019-04-05T12:19:04.478Z,5.45
2019-04-05T12:20:07.853Z,5.35
2019-04-05T12:21:11.750Z,4.92
2019-04-05T12:22:14.403Z,4.72
2019-04-05T12:23:17.131Z,6.08
2019-04-05T12:24:19.734Z,5.50
2019-04-05T12:25:22.291Z,6.60
2019-04-05T12:26:24.892Z,5.30
2019-04-05T12:27:27.580Z,6.42
2019-04-05T12:28:30.281Z,6.33
2019-04-05T12:29:32.855Z,6.20
2019-04-05T12:30:35.689Z,5.22
2019-04-05T12:31:38.248Z,5.67
2019-04-05T12:32:41.697Z,4.97
2019-04-05T12:33:46.839Z,6.17
2019-04-05T12:34:49.529Z,6.28
2019-04-05T12:35:56.610Z,5.80
2019-04-05T12:36:58.550Z,5.53
2019-04-05T12:38:01.085Z,5.58
2019-04-05T12:39:08.023Z,6.60
2019-04-05T12:40:11.284Z,4.97
2019-04-05T12:41:14.390Z,7.53
2019-04-05T12:42:17.195Z,5.33
2019-04-05T12:43:19.994Z,5.90
2019-04-05T12:44:23.711Z,6.03
2019-04-05T12:45:28.094Z,6.10
2019-04-05T12:46:30.845Z,5.28
2019-04-05T12:47:34.151Z,5.40
2019-04-05T12:48:37.045Z,5.30
2019-04-05T12:49:39.721Z,5.40
2019-04-05T12:50:45.018Z,5.20
2019-04-05T12:51:47.960Z,5.65
2019-04-05T12:52:51.692Z,6.03
2019-04-05T12:53:56.406Z,6.00
2019-04-05T12:54:58.790Z,5.45
2019-04-05T12:56:01.720Z,5.92
2019-04-05T12:57:04.439Z,5.58
2019-04-05T12:58:09.789Z,6.12
2019-04-05T12:59:11.639Z,5.70
2019-04-05T13:00:16.871Z,5.55
2019-04-05T13:01:19.401Z,6.12
2019-04-05T13:02:33.141Z,6.05
2019-04-05T13:03:26.531Z,5.40
2019-04-05T13:04:29.171Z,5.78
2019-04-05T13:05:31.883Z,5.80
2019-04-05T13:06:34.727Z,6.03
2019-04-05T13:07:37.393Z,6.45
2019-04-05T13:08:40.117Z,5.03
2019-04-05T13:09:45.676Z,6.40
2019-04-05T13:10:48.176Z,5.67
2019-04-05T13:11:50.664Z,6.50
2019-04-05T13:12:56.896Z,5.95
2019-04-05T13:13:57.940Z,5.58
2019-04-05T13:15:12.275Z,7.12
2019-04-05T13:16:09.817Z,6.72
2019-04-05T13:17:13.994Z,6.00
2019-04-05T13:18:16.512Z,6.22
2019-04-05T13:19:19.178Z,6.50
2019-04-05T13:20:21.798Z,6.78
2019-04-05T13:21:27.590Z,6.42
2019-04-05T13:22:32.113Z,5.97
2019-04-05T13:23:33.809Z,6.22
2019-04-05T13:24:40.274Z,6.45
2019-04-05T13:25:42.402Z,6.70
2019-04-05T13:26:45.093Z,5.60
2019-04-05T13:27:47.607Z,6.30
2019-04-05T13:28:50.374Z,6.37
2019-04-05T13:29:53.291Z,5.62
2019-04-05T13:30:57.121Z,6.53
2019-04-05T13:31:59.791Z,6.85
2019-04-05T13:33:02.673Z,5.33
2019-04-05T13:34:06.100Z,6.35
2019-04-05T13:35:09.126Z,6.40
2019-04-05T13:36:11.804Z,6.72
2019-04-05T13:37:20.574Z,6.05
2019-04-05T13:38:19.395Z,6.28
2019-04-05T13:39:23.612Z,6.22
2019-04-05T13:40:27.429Z,6.20
2019-04-05T13:41:32.167Z,6.35
2019-04-05T13:42:35.576Z,5.22
2019-04-05T13:43:38.485Z,6.37
2019-04-05T13:44:41.081Z,6.25
2019-04-05T13:45:43.967Z,6.17
2019-04-05T13:46:46.721Z,6.25
2019-04-05T13:47:49.385Z,5.72
2019-04-05T13:48:51.927Z,6.70
2019-04-05T13:49:54.727Z,6.67
2019-04-05T13:50:57.383Z,5.95
2019-04-05T13:52:00.051Z,6.80
2019-04-05T13:53:02.768Z,6.15
2019-04-05T13:54:05.538Z,5.92
2019-04-05T13:55:11.295Z,5.08
2019-04-05T13:56:13.681Z,5.45
2019-04-05T13:57:16.320Z,5.95
2019-04-05T13:58:18.878Z,5.58
2019-04-05T13:59:21.618Z,6.53
2019-04-05T14:00:24.174Z,5.50
2019-04-05T14:01:26.719Z,5.90
2019-04-05T14:02:30.584Z,5.87